createdAt,value
2023-02-11T00:00:07.092Z,17.04
2023-02-11T00:00:38.507Z,17.05
2023-02-11T00:01:09.897Z,17.05
2023-02-11T00:01:41.308Z,17.04
2023-02-11T00:02:12.772Z,17.03
2023-02-11T00:02:46.777Z,17.03
2023-02-11T00:03:19.302Z,17.02
2023-02-11T00:03:50.750Z,17.01
2023-02-11T00:04:22.206Z,17.01
2023-02-11T00:04:53.649Z,17.00
2023-02-11T00:05:25.079Z,17.01
2023-02-11T00:05:56.504Z,17.00
2023-02-11T00:06:27.979Z,16.99
2023-02-11T00:06:59.430Z,16.99
2023-02-11T00:07:30.817Z,16.99
2023-02-11T00:08:02.244Z,16.98
2023-02-11T00:08:33.665Z,16.98
2023-02-11T00:09:05.083Z,16.98
2023-02-11T00:09:36.512Z,16.99
2023-02-11T00:10:07.987Z,16.98
2023-02-11T00:10:39.397Z,16.97
2023-02-11T00:11:10.808Z,16.97
2023-02-11T00:11:42.216Z,16.97
2023-02-11T00:12:13.636Z,16.96
2023-02-11T00:12:45.046Z,16.96
2023-02-11T00:13:16.437Z,16.95
2023-02-11T00:13:47.908Z,16.93
2023-02-11T00:14:19.312Z,16.91
2023-02-11T00:14:50.702Z,16.92
2023-02-11T00:15:22.151Z,16.90
2023-02-11T00:15:53.570Z,16.93
2023-02-11T00:16:25.054Z,16.93
2023-02-11T00:16:56.587Z,16.92
2023-02-11T00:17:28.074Z,16.92
2023-02-11T00:17:59.482Z,16.91
2023-02-11T00:18:30.874Z,16.91
2023-02-11T00:19:02.309Z,16.91
2023-02-11T00:19:33.707Z,16.90
2023-02-11T00:20:07.857Z,16.90
2023-02-11T00:20:39.622Z,16.88
2023-02-11T00:21:11.046Z,16.90
2023-02-11T00:21:42.455Z,16.88
2023-02-11T00:22:13.879Z,16.87
2023-02-11T00:22:45.330Z,16.87
2023-02-11T00:23:16.735Z,16.88
2023-02-11T00:23:48.130Z,16.87
2023-02-11T00:24:19.532Z,16.87
2023-02-11T00:24:50.928Z,16.86
2023-02-11T00:25:22.369Z,16.83
2023-02-11T00:25:53.794Z,16.82
2023-02-11T00:26:25.220Z,16.82
2023-02-11T00:26:56.623Z,16.83
2023-02-11T00:27:28.025Z,16.83
2023-02-11T00:27:59.496Z,16.82
2023-02-11T00:28:30.969Z,16.82
2023-02-11T00:29:02.461Z,16.81
2023-02-11T00:29:33.868Z,16.81
2023-02-11T00:30:05.291Z,16.81
2023-02-11T00:30:36.864Z,16.79
2023-02-11T00:31:08.416Z,16.79
2023-02-11T00:31:40.034Z,16.80
2023-02-11T00:32:11.468Z,16.79
2023-02-11T00:32:42.885Z,16.80
2023-02-11T00:33:14.291Z,16.79
2023-02-11T00:33:45.717Z,16.79
2023-02-11T00:34:17.131Z,16.79
2023-02-11T00:34:48.535Z,16.79
2023-02-11T00:35:19.937Z,16.75
2023-02-11T00:35:51.603Z,16.75
2023-02-11T00:36:23.226Z,16.74
2023-02-11T00:36:54.655Z,16.72
2023-02-11T00:37:26.067Z,16.74
2023-02-11T00:37:57.480Z,16.73
2023-02-11T00:38:28.892Z,16.74
2023-02-11T00:39:00.303Z,16.74
2023-02-11T00:39:31.708Z,16.73
2023-02-11T00:40:06.400Z,16.74
2023-02-11T00:40:38.169Z,16.72
2023-02-11T00:41:09.560Z,16.72
2023-02-11T00:41:41.008Z,16.72
2023-02-11T00:42:12.417Z,16.71
2023-02-11T00:42:43.832Z,16.73
2023-02-11T00:43:15.296Z,16.72
2023-02-11T00:43:46.737Z,16.71
2023-02-11T00:44:18.373Z,16.71
2023-02-11T00:44:49.804Z,16.70
2023-02-11T00:45:21.271Z,16.69
2023-02-11T00:45:53.000Z,16.69
2023-02-11T00:46:24.642Z,16.70
2023-02-11T00:46:56.172Z,16.68
2023-02-11T00:47:27.633Z,16.68
2023-02-11T00:47:59.017Z,16.68
2023-02-11T00:48:30.434Z,16.68
2023-02-11T00:49:01.834Z,16.68
2023-02-11T00:49:33.240Z,16.67
2023-02-11T00:50:04.641Z,16.67
2023-02-11T00:50:36.048Z,16.66
2023-02-11T00:51:07.466Z,16.66
2023-02-11T00:51:38.855Z,16.65
2023-02-11T00:52:10.266Z,16.66
2023-02-11T00:52:41.662Z,16.66
2023-02-11T00:53:13.088Z,16.64
2023-02-11T00:53:44.535Z,16.64
2023-02-11T00:54:15.928Z,16.64
2023-02-11T00:54:47.332Z,16.63
2023-02-11T00:55:18.733Z,16.64
2023-02-11T00:55:50.485Z,16.62
2023-02-11T00:56:22.108Z,16.61
2023-02-11T00:56:53.520Z,16.63
2023-02-11T00:57:24.943Z,16.61
2023-02-11T00:57:56.335Z,16.61
2023-02-11T00:58:27.752Z,16.61
2023-02-11T00:58:59.200Z,16.60
2023-02-11T00:59:30.621Z,16.59
2023-02-11T01:00:02.041Z,16.59
2023-02-11T01:00:33.486Z,16.59
2023-02-11T01:01:04.961Z,16.58
2023-02-11T01:01:36.435Z,16.58
2023-02-11T01:02:07.859Z,16.57
2023-02-11T01:02:39.265Z,16.55
2023-02-11T01:03:10.662Z,16.56
2023-02-11T01:03:42.060Z,16.55
2023-02-11T01:04:13.496Z,16.54
2023-02-11T01:04:44.913Z,16.54
2023-02-11T01:05:16.351Z,16.55
2023-02-11T01:05:48.012Z,16.55
2023-02-11T01:06:19.516Z,16.53
2023-02-11T01:06:50.908Z,16.53
2023-02-11T01:07:22.318Z,16.52
2023-02-11T01:07:53.719Z,16.52
2023-02-11T01:08:25.116Z,16.52
2023-02-11T01:08:56.529Z,16.52
2023-02-11T01:09:27.979Z,16.51
2023-02-11T01:09:59.377Z,16.51
2023-02-11T01:10:30.772Z,16.50
2023-02-11T01:11:02.178Z,16.50
2023-02-11T01:11:33.583Z,16.48
2023-02-11T01:12:04.985Z,16.48
2023-02-11T01:12:36.669Z,16.50
2023-02-11T01:13:08.115Z,16.49
2023-02-11T01:13:39.522Z,16.47
2023-02-11T01:14:10.935Z,16.48
2023-02-11T01:14:42.370Z,16.47
2023-02-11T01:15:13.768Z,16.46
2023-02-11T01:15:45.200Z,16.45
2023-02-11T01:16:16.667Z,16.46
2023-02-11T01:16:48.109Z,16.46
2023-02-11T01:17:19.516Z,16.45
2023-02-11T01:17:50.924Z,16.44
2023-02-11T01:18:22.375Z,16.43
2023-02-11T01:18:53.771Z,16.44
2023-02-11T01:19:25.204Z,16.43
2023-02-11T01:19:56.606Z,16.43
2023-02-11T01:20:28.003Z,16.44
2023-02-11T01:20:59.438Z,16.42
2023-02-11T01:21:30.868Z,16.42
2023-02-11T01:22:02.291Z,16.42
2023-02-11T01:22:33.722Z,16.41
2023-02-11T01:23:05.128Z,16.40
2023-02-11T01:23:36.526Z,16.41
2023-02-11T01:24:07.941Z,16.40
2023-02-11T01:24:39.336Z,16.39
2023-02-11T01:25:10.781Z,16.40
2023-02-11T01:25:42.210Z,16.39
2023-02-11T01:26:13.647Z,16.38
2023-02-11T01:26:45.058Z,16.37
2023-02-11T01:27:16.476Z,16.38
2023-02-11T01:27:47.889Z,16.38
2023-02-11T01:28:19.340Z,16.37
2023-02-11T01:28:50.743Z,16.36
2023-02-11T01:29:22.135Z,16.36
2023-02-11T01:29:53.561Z,16.35
2023-02-11T01:30:24.985Z,16.35
2023-02-11T01:30:56.435Z,16.35
2023-02-11T01:31:27.935Z,16.35
2023-02-11T01:31:59.415Z,16.34
2023-02-11T01:32:30.844Z,16.34
2023-02-11T01:33:02.250Z,16.34
2023-02-11T01:33:33.668Z,16.33
2023-02-11T01:34:05.090Z,16.31
2023-02-11T01:34:36.491Z,16.32
2023-02-11T01:35:07.898Z,16.32
2023-02-11T01:35:39.351Z,16.31
2023-02-11T01:36:10.750Z,16.30
2023-02-11T01:36:42.139Z,16.31
2023-02-11T01:37:13.536Z,16.30
2023-02-11T01:37:44.928Z,16.30
2023-02-11T01:38:16.468Z,16.28
2023-02-11T01:38:47.889Z,16.29
2023-02-11T01:39:19.280Z,16.28
2023-02-11T01:39:50.699Z,16.29
2023-02-11T01:40:22.132Z,16.27
2023-02-11T01:40:53.590Z,16.26
2023-02-11T01:41:25.001Z,16.28
2023-02-11T01:41:56.459Z,16.27
2023-02-11T01:42:27.882Z,16.26
2023-02-11T01:42:59.297Z,16.26
2023-02-11T01:43:30.726Z,16.25
2023-02-11T01:44:02.123Z,16.25
2023-02-11T01:44:33.531Z,16.25
2023-02-11T01:45:04.922Z,16.26
2023-02-11T01:45:36.324Z,16.25
2023-02-11T01:46:07.826Z,16.25
2023-02-11T01:46:39.325Z,16.24
2023-02-11T01:47:10.726Z,16.24
2023-02-11T01:47:42.164Z,16.23
2023-02-11T01:48:13.559Z,16.23
2023-02-11T01:48:44.982Z,16.23
2023-02-11T01:49:16.462Z,16.23
2023-02-11T01:49:47.924Z,16.23
2023-02-11T01:50:19.313Z,16.22
2023-02-11T01:50:50.733Z,16.23
2023-02-11T01:51:22.197Z,16.22
2023-02-11T01:51:53.628Z,16.21
2023-02-11T01:52:25.028Z,16.22
2023-02-11T01:52:56.443Z,16.21
2023-02-11T01:53:27.847Z,16.18
2023-02-11T01:53:59.268Z,16.20
2023-02-11T01:54:30.662Z,16.18
2023-02-11T01:55:02.066Z,16.19
2023-02-11T01:55:33.462Z,16.18
2023-02-11T01:56:04.856Z,16.18
2023-02-11T01:56:36.295Z,16.17
2023-02-11T01:57:07.707Z,16.17
2023-02-11T01:57:39.114Z,16.17
2023-02-11T01:58:10.508Z,16.16
2023-02-11T01:58:41.924Z,16.17
2023-02-11T01:59:13.345Z,16.17
2023-02-11T01:59:44.778Z,16.16
2023-02-11T02:00:16.172Z,16.15
2023-02-11T02:00:47.586Z,16.15
2023-02-11T02:01:19.032Z,16.16
2023-02-11T02:01:50.545Z,16.15
2023-02-11T02:02:22.038Z,16.15
2023-02-11T02:02:53.449Z,16.14
2023-02-11T02:03:24.877Z,16.15
2023-02-11T02:03:56.382Z,16.14
2023-02-11T02:04:27.858Z,16.14
2023-02-11T02:04:59.270Z,16.14
2023-02-11T02:05:30.684Z,16.13
2023-02-11T02:06:02.096Z,16.12
2023-02-11T02:06:33.503Z,16.12
2023-02-11T02:07:04.910Z,16.11
2023-02-11T02:07:36.332Z,16.11
2023-02-11T02:08:07.755Z,16.11
2023-02-11T02:08:39.187Z,16.10
2023-02-11T02:09:10.792Z,16.10
2023-02-11T02:09:42.211Z,16.10
2023-02-11T02:10:13.642Z,16.11
2023-02-11T02:10:45.042Z,16.09
2023-02-11T02:11:16.466Z,16.09
2023-02-11T02:11:47.887Z,16.09
2023-02-11T02:12:19.320Z,16.09
2023-02-11T02:12:50.719Z,16.08
2023-02-11T02:13:22.109Z,16.08
2023-02-11T02:13:53.517Z,16.08
2023-02-11T02:14:24.932Z,16.09
2023-02-11T02:14:56.324Z,16.08
2023-02-11T02:15:27.732Z,16.07
2023-02-11T02:15:59.223Z,16.06
2023-02-11T02:16:30.724Z,16.06
2023-02-11T02:17:02.207Z,16.06
2023-02-11T02:17:33.663Z,16.07
2023-02-11T02:18:05.070Z,16.07
2023-02-11T02:18:36.518Z,16.06
2023-02-11T02:19:07.923Z,16.06
2023-02-11T02:19:39.407Z,16.05
2023-02-11T02:20:10.822Z,16.05
2023-02-11T02:20:42.238Z,16.06
2023-02-11T02:21:13.665Z,16.05
2023-02-11T02:21:45.057Z,16.05
2023-02-11T02:22:16.475Z,16.04
2023-02-11T02:22:47.924Z,16.04
2023-02-11T02:23:19.331Z,16.03
2023-02-11T02:23:50.751Z,16.04
2023-02-11T02:24:22.160Z,16.04
2023-02-11T02:24:53.561Z,16.03
2023-02-11T02:25:24.971Z,16.03
2023-02-11T02:25:56.366Z,16.03
2023-02-11T02:26:27.781Z,16.02
2023-02-11T02:26:59.216Z,16.02
2023-02-11T02:27:30.605Z,16.02
2023-02-11T02:28:02.035Z,16.02
2023-02-11T02:28:33.521Z,16.01
2023-02-11T02:29:04.950Z,16.00
2023-02-11T02:29:36.348Z,16.01
2023-02-11T02:30:07.755Z,16.00
2023-02-11T02:30:39.191Z,15.99
2023-02-11T02:31:10.747Z,15.98
2023-02-11T02:31:42.262Z,15.99
2023-02-11T02:32:13.707Z,15.99
2023-02-11T02:32:45.099Z,15.98
2023-02-11T02:33:23.604Z,15.98
2023-02-11T02:33:55.041Z,15.98
2023-02-11T02:34:26.429Z,15.98
2023-02-11T02:34:57.814Z,15.97
2023-02-11T02:35:29.205Z,15.97
2023-02-11T02:36:00.646Z,15.97
2023-02-11T02:36:32.039Z,15.97
2023-02-11T02:37:03.433Z,15.97
2023-02-11T02:37:34.824Z,15.96
2023-02-11T02:38:06.228Z,15.96
2023-02-11T02:38:37.665Z,15.96
2023-02-11T02:39:09.079Z,15.96
2023-02-11T02:39:40.470Z,15.96
2023-02-11T02:40:11.910Z,15.96
2023-02-11T02:40:43.340Z,15.96
2023-02-11T02:41:14.852Z,15.95
2023-02-11T02:41:46.272Z,15.95
2023-02-11T02:42:17.681Z,15.95
2023-02-11T02:42:49.072Z,15.94
2023-02-11T02:43:20.471Z,15.95
2023-02-11T02:43:51.883Z,15.94
2023-02-11T02:44:23.290Z,15.94
2023-02-11T02:44:54.692Z,15.94
2023-02-11T02:45:26.111Z,15.94
2023-02-11T02:45:57.518Z,15.94
2023-02-11T02:46:28.971Z,15.95
2023-02-11T02:47:00.548Z,15.95
2023-02-11T02:47:32.035Z,15.94
2023-02-11T02:48:03.471Z,15.94
2023-02-11T02:48:34.889Z,15.94
2023-02-11T02:49:06.287Z,15.94
2023-02-11T02:49:37.678Z,15.93
2023-02-11T02:50:09.079Z,15.94
2023-02-11T02:50:40.467Z,15.93
2023-02-11T02:51:11.856Z,15.92
2023-02-11T02:51:43.293Z,15.93
2023-02-11T02:52:14.707Z,15.92
2023-02-11T02:52:46.102Z,15.92
2023-02-11T02:53:17.522Z,15.92
2023-02-11T02:53:48.919Z,15.92
2023-02-11T02:54:20.362Z,15.92
2023-02-11T02:54:51.784Z,15.92
2023-02-11T02:55:23.195Z,15.92
2023-02-11T02:55:54.612Z,15.90
2023-02-11T02:56:26.023Z,15.90
2023-02-11T02:56:57.470Z,15.90
2023-02-11T02:57:28.861Z,15.89
2023-02-11T02:58:00.274Z,15.89
2023-02-11T02:58:31.667Z,15.89
2023-02-11T02:59:03.079Z,15.88
2023-02-11T02:59:34.668Z,15.89
2023-02-11T03:00:06.071Z,15.88
2023-02-11T03:00:37.526Z,15.87
2023-02-11T03:01:09.027Z,15.87
2023-02-11T03:01:40.494Z,15.87
2023-02-11T03:02:11.934Z,15.89
2023-02-11T03:02:43.347Z,15.88
2023-02-11T03:03:14.866Z,15.88
2023-02-11T03:03:46.310Z,15.87
2023-02-11T03:04:17.718Z,15.86
2023-02-11T03:04:49.140Z,15.86
2023-02-11T03:05:20.551Z,15.85
2023-02-11T03:05:52.313Z,15.85
2023-02-11T03:06:23.914Z,15.84
2023-02-11T03:06:55.331Z,15.85
2023-02-11T03:07:26.785Z,15.84
2023-02-11T03:07:58.231Z,15.84
2023-02-11T03:08:29.651Z,15.84
2023-02-11T03:09:01.059Z,15.85
2023-02-11T03:09:32.475Z,15.84
2023-02-11T03:10:03.893Z,15.84
2023-02-11T03:10:35.304Z,15.83
2023-02-11T03:11:06.715Z,15.83
2023-02-11T03:11:38.127Z,15.83
2023-02-11T03:12:09.523Z,15.83
2023-02-11T03:12:40.955Z,15.81
2023-02-11T03:13:12.355Z,15.80
2023-02-11T03:13:43.756Z,15.80
2023-02-11T03:14:15.147Z,15.81
2023-02-11T03:14:46.563Z,15.82
2023-02-11T03:15:17.978Z,15.81
2023-02-11T03:15:49.694Z,15.82
2023-02-11T03:16:21.455Z,15.80
2023-02-11T03:16:52.966Z,15.80
2023-02-11T03:17:24.384Z,15.80
2023-02-11T03:17:55.794Z,15.80
2023-02-11T03:18:27.197Z,15.80
2023-02-11T03:18:58.590Z,15.79
2023-02-11T03:19:30.002Z,15.79
2023-02-11T03:20:01.414Z,15.78
2023-02-11T03:20:32.841Z,15.78
2023-02-11T03:21:04.253Z,15.78
2023-02-11T03:21:35.669Z,15.78
2023-02-11T03:22:07.078Z,15.79
2023-02-11T03:22:38.508Z,15.78
2023-02-11T03:23:09.929Z,15.76
2023-02-11T03:23:41.329Z,15.77
2023-02-11T03:24:12.727Z,15.78
2023-02-11T03:24:44.124Z,15.75
2023-02-11T03:25:15.531Z,15.75
2023-02-11T03:25:46.951Z,15.76
2023-02-11T03:26:18.637Z,15.75
2023-02-11T03:26:50.030Z,15.74
2023-02-11T03:27:21.431Z,15.74
2023-02-11T03:27:52.819Z,15.74
2023-02-11T03:28:24.321Z,15.73
2023-02-11T03:28:55.768Z,15.72
2023-02-11T03:29:27.191Z,15.73
2023-02-11T03:29:58.586Z,15.71
2023-02-11T03:30:29.985Z,15.73
2023-02-11T03:31:01.412Z,15.73
2023-02-11T03:31:32.969Z,15.74
2023-02-11T03:32:04.449Z,15.73
2023-02-11T03:32:35.886Z,15.72
2023-02-11T03:33:07.298Z,15.72
2023-02-11T03:33:38.704Z,15.73
2023-02-11T03:34:10.100Z,15.71
2023-02-11T03:34:41.505Z,15.71
2023-02-11T03:35:12.910Z,15.71
2023-02-11T03:35:44.340Z,15.72
2023-02-11T03:36:15.734Z,15.71
2023-02-11T03:36:47.128Z,15.73
2023-02-11T03:37:18.522Z,15.72
2023-02-11T03:37:49.923Z,15.71
2023-02-11T03:38:21.404Z,15.71
2023-02-11T03:38:52.799Z,15.69
2023-02-11T03:39:24.230Z,15.70
2023-02-11T03:39:55.630Z,15.69
2023-02-11T03:40:27.033Z,15.69
2023-02-11T03:40:58.447Z,15.69
2023-02-11T03:41:29.860Z,15.68
2023-02-11T03:42:01.249Z,15.70
2023-02-11T03:42:32.643Z,15.69
2023-02-11T03:43:04.052Z,15.67
2023-02-11T03:43:35.469Z,15.67
2023-02-11T03:44:06.859Z,15.69
2023-02-11T03:44:38.276Z,15.69
2023-02-11T03:45:09.692Z,15.68
2023-02-11T03:45:41.155Z,15.68
2023-02-11T03:46:12.661Z,15.69
2023-02-11T03:46:44.132Z,15.67
2023-02-11T03:47:15.529Z,15.68
2023-02-11T03:47:46.929Z,15.68
2023-02-11T03:48:18.388Z,15.67
2023-02-11T03:48:49.800Z,15.68
2023-02-11T03:49:21.206Z,15.67
2023-02-11T03:49:52.606Z,15.67
2023-02-11T03:50:24.024Z,15.66
2023-02-11T03:50:55.450Z,15.67
2023-02-11T03:51:26.884Z,15.66
2023-02-11T03:51:58.293Z,15.66
2023-02-11T03:52:29.680Z,15.65
2023-02-11T03:53:01.081Z,15.66
2023-02-11T03:53:32.521Z,15.65
2023-02-11T03:54:03.939Z,15.64
2023-02-11T03:54:35.334Z,15.64
2023-02-11T03:55:06.726Z,15.64
2023-02-11T03:55:38.134Z,15.65
2023-02-11T03:56:09.557Z,15.65
2023-02-11T03:56:40.973Z,15.64
2023-02-11T03:57:12.410Z,15.61
2023-02-11T03:57:43.816Z,15.62
2023-02-11T03:58:15.229Z,15.63
2023-02-11T03:58:46.647Z,15.60
2023-02-11T03:59:18.039Z,15.61
2023-02-11T03:59:49.431Z,15.63
2023-02-11T04:00:20.854Z,15.63
2023-02-11T04:00:52.334Z,15.64
2023-02-11T04:01:23.886Z,15.63
2023-02-11T04:01:55.382Z,15.62
2023-02-11T04:02:26.797Z,15.61
2023-02-11T04:02:58.236Z,15.62
2023-02-11T04:03:29.762Z,15.63
2023-02-11T04:04:01.260Z,15.63
2023-02-11T04:04:32.654Z,15.61
2023-02-11T04:05:04.064Z,15.63
2023-02-11T04:05:35.466Z,15.62
2023-02-11T04:06:06.855Z,15.61
2023-02-11T04:06:38.251Z,15.61
2023-02-11T04:07:09.659Z,15.60
2023-02-11T04:07:41.046Z,15.60
2023-02-11T04:08:12.448Z,15.61
2023-02-11T04:08:43.898Z,15.60
2023-02-11T04:09:15.366Z,15.59
2023-02-11T04:09:46.767Z,15.58
2023-02-11T04:10:18.163Z,15.59
2023-02-11T04:10:49.571Z,15.58
2023-02-11T04:11:20.979Z,15.58
2023-02-11T04:11:52.374Z,15.57
2023-02-11T04:12:23.788Z,15.58
2023-02-11T04:12:55.207Z,15.56
2023-02-11T04:13:26.604Z,15.57
2023-02-11T04:13:58.002Z,15.56
2023-02-11T04:14:29.455Z,15.57
2023-02-11T04:15:00.877Z,15.56
2023-02-11T04:15:32.295Z,15.56
2023-02-11T04:16:03.759Z,15.56
2023-02-11T04:16:35.255Z,15.56
2023-02-11T04:17:06.767Z,15.54
2023-02-11T04:17:38.159Z,15.55
2023-02-11T04:18:09.597Z,15.53
2023-02-11T04:18:41.001Z,15.54
2023-02-11T04:19:12.416Z,15.54
2023-02-11T04:19:43.848Z,15.55
2023-02-11T04:20:15.244Z,15.54
2023-02-11T04:20:46.655Z,15.54
2023-02-11T04:21:18.078Z,15.52
2023-02-11T04:21:49.550Z,15.53
2023-02-11T04:22:20.977Z,15.53
2023-02-11T04:22:52.366Z,15.54
2023-02-11T04:23:23.767Z,15.53
2023-02-11T04:23:55.164Z,15.52
2023-02-11T04:24:26.564Z,15.53
2023-02-11T04:24:57.987Z,15.52
2023-02-11T04:25:29.378Z,15.52
2023-02-11T04:26:00.780Z,15.52
2023-02-11T04:26:32.169Z,15.52
2023-02-11T04:27:03.631Z,15.51
2023-02-11T04:27:35.043Z,15.50
2023-02-11T04:28:06.523Z,15.49
2023-02-11T04:28:37.967Z,15.48
2023-02-11T04:29:09.401Z,15.49
2023-02-11T04:29:40.791Z,15.49
2023-02-11T04:30:12.196Z,15.48
2023-02-11T04:30:43.634Z,15.47
2023-02-11T04:31:15.112Z,15.48
2023-02-11T04:31:46.608Z,15.47
2023-02-11T04:32:18.031Z,15.45
2023-02-11T04:32:49.441Z,15.47
2023-02-11T04:33:20.839Z,15.47
2023-02-11T04:33:52.235Z,15.47
2023-02-11T04:34:23.648Z,15.47
2023-02-11T04:34:55.054Z,15.46
2023-02-11T04:35:26.503Z,15.44
2023-02-11T04:35:57.903Z,15.44
2023-02-11T04:36:29.312Z,15.44
2023-02-11T04:37:00.731Z,15.43
2023-02-11T04:37:32.124Z,15.44
2023-02-11T04:38:03.556Z,15.44
2023-02-11T04:38:35.217Z,15.44
2023-02-11T04:39:06.619Z,15.43
2023-02-11T04:39:38.040Z,15.44
2023-02-11T04:40:09.456Z,15.43
2023-02-11T04:40:40.910Z,15.43
2023-02-11T04:41:12.318Z,15.44
2023-02-11T04:41:43.735Z,15.43
2023-02-11T04:42:15.478Z,15.42
2023-02-11T04:42:46.882Z,15.44
2023-02-11T04:43:18.330Z,15.42
2023-02-11T04:43:49.743Z,15.42
2023-02-11T04:44:21.154Z,15.42
2023-02-11T04:44:52.566Z,15.42
2023-02-11T04:45:23.986Z,15.42
2023-02-11T04:45:55.703Z,15.42
2023-02-11T04:46:27.202Z,15.41
2023-02-11T04:46:58.639Z,15.41
2023-02-11T04:47:30.061Z,15.41
2023-02-11T04:48:01.535Z,15.40
2023-02-11T04:48:32.936Z,15.40
2023-02-11T04:49:04.342Z,15.39
2023-02-11T04:49:35.905Z,15.38
2023-02-11T04:50:07.309Z,15.37
2023-02-11T04:50:38.707Z,15.39
2023-02-11T04:51:10.161Z,15.37
2023-02-11T04:51:41.577Z,15.37
2023-02-11T04:52:12.971Z,15.37
2023-02-11T04:52:44.379Z,15.37
2023-02-11T04:53:15.815Z,15.37
2023-02-11T04:53:47.228Z,15.36
2023-02-11T04:54:18.669Z,15.36
2023-02-11T04:54:50.103Z,15.35
2023-02-11T04:55:21.501Z,15.33
2023-02-11T04:55:53.057Z,15.32
2023-02-11T04:56:24.542Z,15.33
2023-02-11T04:56:55.927Z,15.33
2023-02-11T04:57:27.323Z,15.33
2023-02-11T04:57:58.774Z,15.31
2023-02-11T04:58:30.237Z,15.31
2023-02-11T04:59:01.659Z,15.31
2023-02-11T04:59:33.046Z,15.30
2023-02-11T05:00:04.436Z,15.32
2023-02-11T05:00:35.892Z,15.31
2023-02-11T05:01:07.381Z,15.30
2023-02-11T05:01:38.873Z,15.31
2023-02-11T05:02:10.278Z,15.30
2023-02-11T05:02:41.691Z,15.30
2023-02-11T05:03:13.114Z,15.30
2023-02-11T05:03:44.572Z,15.30
2023-02-11T05:04:16.007Z,15.30
2023-02-11T05:04:47.422Z,15.29
2023-02-11T05:05:18.867Z,15.29
2023-02-11T05:05:50.528Z,15.28
2023-02-11T05:06:22.022Z,15.25
2023-02-11T05:06:53.451Z,15.27
2023-02-11T05:07:24.868Z,15.27
2023-02-11T05:07:56.290Z,15.27
2023-02-11T05:08:27.687Z,15.27
2023-02-11T05:08:59.140Z,15.27
2023-02-11T05:09:30.551Z,15.27
2023-02-11T05:10:01.989Z,15.27
2023-02-11T05:10:33.416Z,15.27
2023-02-11T05:11:04.828Z,15.27
2023-02-11T05:11:36.246Z,15.26
2023-02-11T05:12:07.667Z,15.25
2023-02-11T05:12:39.074Z,15.25
2023-02-11T05:13:10.494Z,15.25
2023-02-11T05:13:41.892Z,15.26
2023-02-11T05:14:13.331Z,15.24
2023-02-11T05:14:44.745Z,15.24
2023-02-11T05:15:16.201Z,15.24
2023-02-11T05:15:47.614Z,15.24
2023-02-11T05:16:19.068Z,15.23
2023-02-11T05:16:50.536Z,15.26
2023-02-11T05:17:21.960Z,15.25
2023-02-11T05:17:53.372Z,15.24
2023-02-11T05:18:24.788Z,15.25
2023-02-11T05:18:56.220Z,15.26
2023-02-11T05:19:27.777Z,15.25
2023-02-11T05:19:59.199Z,15.27
2023-02-11T05:20:30.609Z,15.27
2023-02-11T05:21:02.000Z,15.23
2023-02-11T05:21:33.400Z,15.25
2023-02-11T05:22:04.792Z,15.25
2023-02-11T05:22:36.210Z,15.22
2023-02-11T05:23:07.609Z,15.22
2023-02-11T05:23:39.004Z,15.23
2023-02-11T05:24:10.400Z,15.24
2023-02-11T05:24:41.847Z,15.24
2023-02-11T05:25:13.259Z,15.21
2023-02-11T05:25:44.675Z,15.24
2023-02-11T05:26:16.090Z,15.23
2023-02-11T05:26:47.507Z,15.23
2023-02-11T05:27:18.898Z,15.23
2023-02-11T05:27:50.304Z,15.23
2023-02-11T05:28:21.776Z,15.22
2023-02-11T05:28:53.231Z,15.22
2023-02-11T05:29:24.640Z,15.22
2023-02-11T05:29:56.108Z,15.23
2023-02-11T05:30:27.558Z,15.23
2023-02-11T05:30:59.062Z,15.21
2023-02-11T05:31:30.477Z,15.22
2023-02-11T05:32:01.880Z,15.21
2023-02-11T05:32:33.285Z,15.21
2023-02-11T05:33:04.683Z,15.19
2023-02-11T05:33:36.076Z,15.18
2023-02-11T05:34:07.472Z,15.19
2023-02-11T05:34:38.879Z,15.15
2023-02-11T05:35:10.336Z,15.15
2023-02-11T05:35:41.768Z,15.16
2023-02-11T05:36:13.174Z,15.16
2023-02-11T05:36:44.584Z,15.17
2023-02-11T05:37:15.993Z,15.16
2023-02-11T05:37:47.422Z,15.17
2023-02-11T05:38:18.841Z,15.15
2023-02-11T05:38:50.233Z,15.15
2023-02-11T05:39:21.653Z,15.15
2023-02-11T05:39:53.142Z,15.15
2023-02-11T05:40:24.627Z,15.16
2023-02-11T05:40:56.027Z,15.14
2023-02-11T05:41:27.450Z,15.14
2023-02-11T05:41:58.875Z,15.14
2023-02-11T05:42:30.286Z,15.14
2023-02-11T05:43:01.701Z,15.13
2023-02-11T05:43:33.117Z,15.15
2023-02-11T05:44:04.572Z,15.12
2023-02-11T05:44:36.007Z,15.13
2023-02-11T05:45:07.606Z,15.13
2023-02-11T05:45:39.030Z,15.12
2023-02-11T05:46:10.492Z,15.12
2023-02-11T05:46:42.013Z,15.13
2023-02-11T05:47:13.461Z,15.13
2023-02-11T05:47:44.885Z,15.13
2023-02-11T05:48:16.282Z,15.09
2023-02-11T05:48:47.795Z,15.10
2023-02-11T05:49:19.207Z,15.09
2023-02-11T05:49:50.616Z,15.11
2023-02-11T05:50:22.026Z,15.11
2023-02-11T05:50:53.483Z,15.11
2023-02-11T05:51:24.875Z,15.10
2023-02-11T05:51:56.277Z,15.10
2023-02-11T05:52:27.723Z,15.11
2023-02-11T05:52:59.115Z,15.08
2023-02-11T05:53:30.735Z,15.09
2023-02-11T05:54:02.131Z,15.09
2023-02-11T05:54:33.545Z,15.08
2023-02-11T05:55:04.984Z,15.08
2023-02-11T05:55:36.402Z,15.05
2023-02-11T05:56:07.804Z,15.06
2023-02-11T05:56:39.206Z,15.06
2023-02-11T05:57:10.600Z,15.06
2023-02-11T05:57:42.037Z,15.06
2023-02-11T05:58:13.421Z,15.06
2023-02-11T05:58:44.831Z,15.06
2023-02-11T05:59:16.226Z,15.06
2023-02-11T05:59:47.658Z,15.04
2023-02-11T06:00:19.050Z,15.03
2023-02-11T06:00:50.452Z,15.02
2023-02-11T06:01:21.870Z,15.01
2023-02-11T06:01:53.271Z,14.99
2023-02-11T06:02:24.737Z,14.99
2023-02-11T06:02:56.284Z,15.01
2023-02-11T06:03:27.733Z,15.01
2023-02-11T06:03:59.165Z,15.01
2023-02-11T06:04:30.628Z,14.99
2023-02-11T06:05:02.058Z,15.00
2023-02-11T06:05:33.464Z,14.98
2023-02-11T06:06:04.884Z,14.98
2023-02-11T06:06:36.321Z,14.97
2023-02-11T06:07:07.740Z,14.99
2023-02-11T06:07:39.135Z,15.00
2023-02-11T06:08:10.575Z,15.00
2023-02-11T06:08:41.976Z,14.99
2023-02-11T06:09:13.396Z,14.99
2023-02-11T06:09:44.807Z,15.00
2023-02-11T06:10:16.215Z,14.98
2023-02-11T06:10:47.641Z,14.98
2023-02-11T06:11:19.034Z,14.97
2023-02-11T06:11:50.473Z,14.95
2023-02-11T06:12:21.873Z,14.96
2023-02-11T06:12:53.294Z,14.98
2023-02-11T06:13:24.721Z,14.98
2023-02-11T06:13:56.135Z,14.98
2023-02-11T06:14:27.529Z,14.95
2023-02-11T06:14:58.926Z,14.96
2023-02-11T06:15:30.367Z,14.97
2023-02-11T06:16:01.828Z,14.97
2023-02-11T06:16:33.278Z,14.97
2023-02-11T06:17:04.731Z,14.96
2023-02-11T06:17:36.143Z,14.96
2023-02-11T06:18:07.553Z,14.96
2023-02-11T06:18:39.017Z,14.96
2023-02-11T06:19:10.454Z,14.95
2023-02-11T06:19:41.845Z,14.95
2023-02-11T06:20:13.412Z,14.94
2023-02-11T06:20:44.808Z,14.94
2023-02-11T06:21:16.229Z,14.92
2023-02-11T06:21:47.634Z,14.89
2023-02-11T06:22:19.065Z,14.89
2023-02-11T06:22:50.463Z,14.90
2023-02-11T06:23:22.012Z,14.91
2023-02-11T06:23:53.706Z,14.92
2023-02-11T06:24:51.090Z,14.91
2023-02-11T06:25:16.468Z,14.91
2023-02-11T06:25:47.976Z,14.89
2023-02-11T06:26:19.441Z,14.90
2023-02-11T06:26:50.863Z,14.92
2023-02-11T06:27:22.288Z,14.89
2023-02-11T06:27:53.691Z,14.89
2023-02-11T06:28:25.184Z,14.91
2023-02-11T06:28:56.642Z,14.90
2023-02-11T06:29:28.032Z,14.90
2023-02-11T06:29:59.425Z,14.89
2023-02-11T06:30:30.831Z,14.90
2023-02-11T06:31:02.335Z,14.87
2023-02-11T06:31:33.868Z,14.85
2023-02-11T06:32:05.468Z,14.86
2023-02-11T06:32:44.671Z,14.84
2023-02-11T06:33:16.742Z,14.85
2023-02-11T06:33:48.154Z,14.86
2023-02-11T06:34:19.606Z,14.87
2023-02-11T06:34:50.995Z,14.86
2023-02-11T06:35:22.387Z,14.86
2023-02-11T06:35:53.791Z,14.87
2023-02-11T06:36:25.204Z,14.85
2023-02-11T06:36:56.594Z,14.87
2023-02-11T06:37:27.991Z,14.87
2023-02-11T06:37:59.403Z,14.87
2023-02-11T06:38:30.796Z,14.88
2023-02-11T06:39:02.187Z,14.88
2023-02-11T06:39:33.619Z,14.87
2023-02-11T06:40:05.032Z,14.86
2023-02-11T06:40:36.450Z,14.86
2023-02-11T06:41:07.866Z,14.84
2023-02-11T06:41:39.286Z,14.86
2023-02-11T06:42:10.678Z,14.83
2023-02-11T06:42:42.087Z,14.85
2023-02-11T06:43:13.530Z,14.83
2023-02-11T06:43:44.945Z,14.82
2023-02-11T06:44:16.358Z,14.84
2023-02-11T06:44:47.784Z,14.81
2023-02-11T06:45:19.179Z,14.81